sensor_id;sensor_type;location;lat;lon;timestamp;P1;durP1;ratioP1;P2;durP2;ratioP2
462;SDS011;218;51.902;9.542;2023-05-07T00:01:40;20.75;;;18.85;;
462;SDS011;218;51.902;9.542;2023-05-07T00:04:07;20.53;;;18.33;;
462;SDS011;218;51.902;9.542;2023-05-07T00:06:34;19.53;;;17.83;;
462;SDS011;218;51.902;9.542;2023-05-07T00:09:01;20.33;;;18.42;;
462;SDS011;218;51.902;9.542;2023-05-07T00:11:29;21.83;;;19.77;;
462;SDS011;218;51.902;9.542;2023-05-07T00:13:56;20.23;;;18.42;;
462;SDS011;218;51.902;9.542;2023-05-07T00:16:23;19.60;;;17.60;;
462;SDS011;218;51.902;9.542;2023-05-07T00:18:52;18.57;;;16.87;;
462;SDS011;218;51.902;9.542;2023-05-07T00:21:19;20.90;;;18.97;;
462;SDS011;218;51.902;9.542;2023-05-07T00:23:46;21.83;;;19.63;;
462;SDS011;218;51.902;9.542;2023-05-07T00:26:13;19.70;;;18.00;;
462;SDS011;218;51.902;9.542;2023-05-07T00:28:40;22.27;;;19.97;;
462;SDS011;218;51.902;9.542;2023-05-07T00:31:07;19.77;;;17.87;;
462;SDS011;218;51.902;9.542;2023-05-07T00:33:35;19.67;;;17.67;;
462;SDS011;218;51.902;9.542;2023-05-07T00:36:03;21.70;;;19.52;;
462;SDS011;218;51.902;9.542;2023-05-07T00:38:31;21.42;;;19.23;;
462;SDS011;218;51.902;9.542;2023-05-07T00:40:57;21.87;;;19.80;;
462;SDS011;218;51.902;9.542;2023-05-07T00:43:24;20.75;;;18.85;;
462;SDS011;218;51.902;9.542;2023-05-07T00:45:52;20.58;;;18.58;;
462;SDS011;218;51.902;9.542;2023-05-07T00:48:19;21.40;;;19.10;;
462;SDS011;218;51.902;9.542;2023-05-07T00:50:49;20.87;;;18.87;;
462;SDS011;218;51.902;9.542;2023-05-07T00:53:18;19.20;;;17.40;;
462;SDS011;218;51.902;9.542;2023-05-07T00:55:45;20.27;;;18.27;;
462;SDS011;218;51.902;9.542;2023-05-07T00:58:12;20.73;;;18.60;;
462;SDS011;218;51.902;9.542;2023-05-07T01:00:39;21.55;;;19.45;;
462;SDS011;218;51.902;9.542;2023-05-07T01:03:07;21.93;;;19.73;;
462;SDS011;218;51.902;9.542;2023-05-07T01:05:34;21.92;;;19.63;;
462;SDS011;218;51.902;9.542;2023-05-07T01:08:01;21.73;;;19.58;;
462;SDS011;218;51.902;9.542;2023-05-07T01:10:31;20.98;;;18.88;;
462;SDS011;218;51.902;9.542;2023-05-07T01:12:58;21.50;;;19.30;;
462;SDS011;218;51.902;9.542;2023-05-07T01:15:26;18.90;;;17.00;;
462;SDS011;218;51.902;9.542;2023-05-07T01:17:53;21.37;;;19.27;;
462;SDS011;218;51.902;9.542;2023-05-07T01:20:20;23.30;;;19.55;;
462;SDS011;218;51.902;9.542;2023-05-07T01:22:50;19.95;;;18.05;;
462;SDS011;218;51.902;9.542;2023-05-07T01:25:19;20.90;;;18.90;;
462;SDS011;218;51.902;9.542;2023-05-07T01:27:46;22.23;;;20.13;;
462;SDS011;218;51.902;9.542;2023-05-07T01:30:13;21.17;;;18.85;;
462;SDS011;218;51.902;9.542;2023-05-07T01:32:41;21.60;;;19.35;;
462;SDS011;218;51.902;9.542;2023-05-07T01:35:11;21.93;;;19.70;;
462;SDS011;218;51.902;9.542;2023-05-07T01:37:42;23.13;;;20.73;;
462;SDS011;218;51.902;9.542;2023-05-07T01:40:10;22.55;;;20.35;;
462;SDS011;218;51.902;9.542;2023-05-07T01:42:37;21.80;;;19.60;;
462;SDS011;218;51.902;9.542;2023-05-07T01:45:05;22.97;;;20.00;;
462;SDS011;218;51.902;9.542;2023-05-07T01:47:32;22.23;;;19.93;;
462;SDS011;218;51.902;9.542;2023-05-07T01:50:00;22.42;;;20.13;;
462;SDS011;218;51.902;9.542;2023-05-07T01:52:27;23.20;;;20.92;;
462;SDS011;218;51.902;9.542;2023-05-07T01:54:55;24.93;;;20.50;;
462;SDS011;218;51.902;9.542;2023-05-07T01:57:23;22.38;;;20.08;;
462;SDS011;218;51.902;9.542;2023-05-07T01:59:50;21.77;;;19.57;;
462;SDS011;218;51.902;9.542;2023-05-07T02:02:17;22.73;;;20.53;;
462;SDS011;218;51.902;9.542;2023-05-07T02:04:44;20.27;;;18.37;;
462;SDS011;218;51.902;9.542;2023-05-07T02:07:11;24.20;;;21.80;;
462;SDS011;218;51.902;9.542;2023-05-07T02:09:38;21.33;;;19.03;;
462;SDS011;218;51.902;9.542;2023-05-07T02:12:05;24.73;;;22.23;;
462;SDS011;218;51.902;9.542;2023-05-07T02:14:34;23.27;;;20.87;;
462;SDS011;218;51.902;9.542;2023-05-07T02:17:01;21.27;;;19.10;;
462;SDS011;218;51.902;9.542;2023-05-07T02:19:28;22.15;;;19.95;;
462;SDS011;218;51.902;9.542;2023-05-07T02:21:55;22.80;;;20.50;;
462;SDS011;218;51.902;9.542;2023-05-07T02:24:22;22.83;;;20.52;;
462;SDS011;218;51.902;9.542;2023-05-07T02:26:49;22.50;;;20.40;;
462;SDS011;218;51.902;9.542;2023-05-07T02:29:16;22.90;;;20.50;;
462;SDS011;218;51.902;9.542;2023-05-07T02:31:44;21.90;;;19.60;;
462;SDS011;218;51.902;9.542;2023-05-07T02:34:12;22.13;;;19.97;;
462;SDS011;218;51.902;9.542;2023-05-07T02:36:39;23.47;;;21.07;;
462;SDS011;218;51.902;9.542;2023-05-07T02:39:06;22.57;;;20.23;;
462;SDS011;218;51.902;9.542;2023-05-07T02:41:33;23.83;;;21.20;;
462;SDS011;218;51.902;9.542;2023-05-07T02:44:00;22.53;;;19.93;;
462;SDS011;218;51.902;9.542;2023-05-07T02:46:27;24.20;;;21.60;;
462;SDS011;218;51.902;9.542;2023-05-07T02:48:56;24.42;;;21.83;;
462;SDS011;218;51.902;9.542;2023-05-07T02:51:22;23.90;;;21.50;;
462;SDS011;218;51.902;9.542;2023-05-07T02:53:50;23.03;;;20.80;;
462;SDS011;218;51.902;9.542;2023-05-07T02:56:17;22.80;;;20.00;;
462;SDS011;218;51.902;9.542;2023-05-07T02:58:44;26.30;;;23.60;;
462;SDS011;218;51.902;9.542;2023-05-07T03:01:11;24.85;;;22.35;;
462;SDS011;218;51.902;9.542;2023-05-07T03:03:39;23.97;;;21.40;;
462;SDS011;218;51.902;9.542;2023-05-07T03:06:08;22.37;;;20.17;;
462;SDS011;218;51.902;9.542;2023-05-07T03:08:35;20.10;;;18.10;;
462;SDS011;218;51.902;9.542;2023-05-07T03:11:02;25.58;;;22.95;;
462;SDS011;218;51.902;9.542;2023-05-07T03:13:29;24.88;;;22.20;;
462;SDS011;218;51.902;9.542;2023-05-07T03:15:56;24.40;;;21.80;;
462;SDS011;218;51.902;9.542;2023-05-07T03:18:23;24.30;;;21.80;;
462;SDS011;218;51.902;9.542;2023-05-07T03:20:51;24.50;;;21.90;;
462;SDS011;218;51.902;9.542;2023-05-07T03:23:19;22.40;;;20.20;;
462;SDS011;218;51.902;9.542;2023-05-07T03:25:46;28.13;;;22.05;;
462;SDS011;218;51.902;9.542;2023-05-07T03:28:13;22.87;;;20.57;;
462;SDS011;218;51.902;9.542;2023-05-07T03:30:40;23.60;;;19.83;;
462;SDS011;218;51.902;9.542;2023-05-07T03:33:07;24.07;;;21.50;;
462;SDS011;218;51.902;9.542;2023-05-07T03:35:34;21.00;;;18.90;;
462;SDS011;218;51.902;9.542;2023-05-07T03:38:01;23.60;;;20.00;;
462;SDS011;218;51.902;9.542;2023-05-07T03:40:30;23.83;;;21.10;;
462;SDS011;218;51.902;9.542;2023-05-07T03:42:57;22.20;;;19.90;;
462;SDS011;218;51.902;9.542;2023-05-07T03:45:24;22.67;;;20.38;;
462;SDS011;218;51.902;9.542;2023-05-07T03:47:51;22.93;;;20.17;;
462;SDS011;218;51.902;9.542;2023-05-07T03:50:18;21.37;;;19.10;;
462;SDS011;218;51.902;9.542;2023-05-07T03:52:45;22.25;;;19.85;;
462;SDS011;218;51.902;9.542;2023-05-07T03:55:12;23.88;;;21.38;;
462;SDS011;218;51.902;9.542;2023-05-07T03:57:40;22.53;;;20.20;;
462;SDS011;218;51.902;9.542;2023-05-07T04:00:08;22.00;;;19.52;;
462;SDS011;218;51.902;9.542;2023-05-07T04:02:35;21.57;;;19.33;;
462;SDS011;218;51.902;9.542;2023-05-07T04:05:02;22.50;;;20.30;;
462;SDS011;218;51.902;9.542;2023-05-07T04:07:30;23.90;;;21.63;;
462;SDS011;218;51.902;9.542;2023-05-07T04:09:57;20.67;;;18.37;;
462;SDS011;218;51.902;9.542;2023-05-07T04:12:24;20.90;;;18.70;;
462;SDS011;218;51.902;9.542;2023-05-07T04:14:53;21.92;;;19.73;;
462;SDS011;218;51.902;9.542;2023-05-07T04:17:20;23.47;;;19.83;;
462;SDS011;218;51.902;9.542;2023-05-07T04:19:47;19.17;;;17.07;;
462;SDS011;218;51.902;9.542;2023-05-07T04:22:14;21.90;;;19.70;;
462;SDS011;218;51.902;9.542;2023-05-07T04:24:41;19.95;;;18.05;;
462;SDS011;218;51.902;9.542;2023-05-07T04:27:08;19.77;;;17.67;;
462;SDS011;218;51.902;9.542;2023-05-07T04:29:35;20.10;;;18.02;;
462;SDS011;218;51.902;9.542;2023-05-07T04:32:05;19.10;;;17.23;;
462;SDS011;218;51.902;9.542;2023-05-07T04:34:32;19.70;;;16.30;;
462;SDS011;218;51.902;9.542;2023-05-07T04:36:59;17.87;;;16.10;;
462;SDS011;218;51.902;9.542;2023-05-07T04:39:26;17.88;;;15.98;;
462;SDS011;218;51.902;9.542;2023-05-07T04:41:53;17.80;;;15.97;;
462;SDS011;218;51.902;9.542;2023-05-07T04:44:20;19.25;;;17.25;;
462;SDS011;218;51.902;9.542;2023-05-07T04:46:47;18.08;;;15.80;;
462;SDS011;218;51.902;9.542;2023-05-07T04:49:16;17.73;;;16.00;;
462;SDS011;218;51.902;9.542;2023-05-07T04:51:43;20.85;;;18.77;;
462;SDS011;218;51.902;9.542;2023-05-07T04:54:10;19.52;;;16.90;;
462;SDS011;218;51.902;9.542;2023-05-07T04:56:37;18.55;;;16.65;;
462;SDS011;218;51.902;9.542;2023-05-07T04:59:04;18.58;;;16.58;;
462;SDS011;218;51.902;9.542;2023-05-07T05:01:31;16.77;;;15.18;;
462;SDS011;218;51.902;9.542;2023-05-07T05:03:59;17.02;;;15.27;;
462;SDS011;218;51.902;9.542;2023-05-07T05:06:27;17.30;;;15.60;;
462;SDS011;218;51.902;9.542;2023-05-07T05:08:54;16.83;;;15.20;;
462;SDS011;218;51.902;9.542;2023-05-07T05:11:21;16.20;;;14.50;;
462;SDS011;218;51.902;9.542;2023-05-07T05:13:48;16.33;;;14.80;;
462;SDS011;218;51.902;9.542;2023-05-07T05:16:16;17.00;;;15.00;;
462;SDS011;218;51.902;9.542;2023-05-07T05:18:43;15.95;;;14.35;;
462;SDS011;218;51.902;9.542;2023-05-07T05:21:10;14.37;;;13.00;;
462;SDS011;218;51.902;9.542;2023-05-07T05:23:38;15.53;;;13.97;;
462;SDS011;218;51.902;9.542;2023-05-07T05:26:05;14.88;;;13.35;;
462;SDS011;218;51.902;9.542;2023-05-07T05:28:32;13.70;;;12.40;;
462;SDS011;218;51.902;9.542;2023-05-07T05:31:00;12.90;;;11.70;;
462;SDS011;218;51.902;9.542;2023-05-07T05:33:26;14.48;;;13.07;;
462;SDS011;218;51.902;9.542;2023-05-07T05:35:53;12.47;;;11.13;;
462;SDS011;218;51.902;9.542;2023-05-07T05:38:21;13.02;;;11.80;;
462;SDS011;218;51.902;9.542;2023-05-07T05:40:49;13.23;;;11.93;;
462;SDS011;218;51.902;9.542;2023-05-07T05:43:16;11.50;;;10.33;;
462;SDS011;218;51.902;9.542;2023-05-07T05:45:43;13.03;;;11.83;;
462;SDS011;218;51.902;9.542;2023-05-07T05:48:10;12.15;;;10.95;;
462;SDS011;218;51.902;9.542;2023-05-07T05:50:37;12.50;;;11.30;;
462;SDS011;218;51.902;9.542;2023-05-07T05:53:04;12.73;;;11.53;;
462;SDS011;218;51.902;9.542;2023-05-07T05:55:32;11.40;;;10.30;;
462;SDS011;218;51.902;9.542;2023-05-07T05:58:00;12.13;;;10.93;;
462;SDS011;218;51.902;9.542;2023-05-07T06:00:27;12.20;;;10.90;;
462;SDS011;218;51.902;9.542;2023-05-07T06:02:55;11.90;;;10.80;;
462;SDS011;218;51.902;9.542;2023-05-07T06:05:22;12.43;;;11.40;;
462;SDS011;218;51.902;9.542;2023-05-07T06:07:49;12.93;;;11.67;;
462;SDS011;218;51.902;9.542;2023-05-07T06:10:16;12.80;;;11.10;;
462;SDS011;218;51.902;9.542;2023-05-07T06:12:43;11.82;;;10.63;;
462;SDS011;218;51.902;9.542;2023-05-07T06:15:11;10.97;;;9.90;;
462;SDS011;218;51.902;9.542;2023-05-07T06:17:38;11.98;;;10.88;;
462;SDS011;218;51.902;9.542;2023-05-07T06:20:07;11.77;;;10.57;;
462;SDS011;218;51.902;9.542;2023-05-07T06:22:34;12.53;;;11.33;;
462;SDS011;218;51.902;9.542;2023-05-07T06:25:01;10.97;;;10.00;;
462;SDS011;218;51.902;9.542;2023-05-07T06:27:29;12.27;;;11.07;;
462;SDS011;218;51.902;9.542;2023-05-07T06:29:56;11.63;;;10.52;;
462;SDS011;218;51.902;9.542;2023-05-07T06:32:24;12.25;;;11.00;;
462;SDS011;218;51.902;9.542;2023-05-07T06:34:51;11.70;;;10.60;;
462;SDS011;218;51.902;9.542;2023-05-07T06:37:18;10.93;;;9.83;;
462;SDS011;218;51.902;9.542;2023-05-07T06:39:45;11.50;;;10.40;;
462;SDS011;218;51.902;9.542;2023-05-07T06:42:12;12.20;;;11.07;;
462;SDS011;218;51.902;9.542;2023-05-07T06:44:39;10.95;;;9.95;;
462;SDS011;218;51.902;9.542;2023-05-07T06:47:06;11.55;;;10.55;;
462;SDS011;218;51.902;9.542;2023-05-07T06:49:35;12.45;;;11.30;;
462;SDS011;218;51.902;9.542;2023-05-07T06:52:02;12.20;;;11.10;;
462;SDS011;218;51.902;9.542;2023-05-07T06:54:29;12.10;;;10.90;;
462;SDS011;218;51.902;9.542;2023-05-07T06:56:56;11.70;;;10.50;;
462;SDS011;218;51.902;9.542;2023-05-07T06:59:23;11.43;;;10.35;;
462;SDS011;218;51.902;9.542;2023-05-07T07:01:50;11.30;;;10.30;;
462;SDS011;218;51.902;9.542;2023-05-07T07:04:17;12.18;;;11.00;;
462;SDS011;218;51.902;9.542;2023-05-07T07:06:46;11.07;;;10.00;;
462;SDS011;218;51.902;9.542;2023-05-07T07:09:13;12.10;;;10.90;;
462;SDS011;218;51.902;9.542;2023-05-07T07:11:40;11.20;;;10.20;;
462;SDS011;218;51.902;9.542;2023-05-07T07:14:07;12.57;;;11.40;;
462;SDS011;218;51.902;9.542;2023-05-07T07:16:34;11.18;;;10.07;;
462;SDS011;218;51.902;9.542;2023-05-07T07:19:01;11.63;;;10.63;;
462;SDS011;218;51.902;9.542;2023-05-07T07:21:28;12.10;;;10.90;;
462;SDS011;218;51.902;9.542;2023-05-07T07:23:59;10.37;;;9.33;;
462;SDS011;218;51.902;9.542;2023-05-07T07:26:27;11.60;;;10.10;;
462;SDS011;218;51.902;9.542;2023-05-07T07:28:54;10.53;;;9.57;;
462;SDS011;218;51.902;9.542;2023-05-07T07:31:21;11.00;;;9.90;;
462;SDS011;218;51.902;9.542;2023-05-07T07:33:48;10.30;;;9.30;;
462;SDS011;218;51.902;9.542;2023-05-07T07:36:15;12.00;;;10.40;;
462;SDS011;218;51.902;9.542;2023-05-07T07:38:42;9.80;;;8.90;;
462;SDS011;218;51.902;9.542;2023-05-07T07:41:11;8.60;;;7.83;;
462;SDS011;218;51.902;9.542;2023-05-07T07:43:37;9.65;;;8.75;;
462;SDS011;218;51.902;9.542;2023-05-07T07:46:04;8.87;;;8.00;;
462;SDS011;218;51.902;9.542;2023-05-07T07:48:32;9.03;;;8.10;;
462;SDS011;218;51.902;9.542;2023-05-07T07:50:59;8.85;;;8.05;;
462;SDS011;218;51.902;9.542;2023-05-07T07:53:26;8.90;;;8.10;;
462;SDS011;218;51.902;9.542;2023-05-07T07:55:53;7.20;;;6.53;;
462;SDS011;218;51.902;9.542;2023-05-07T07:58:21;8.60;;;7.77;;
462;SDS011;218;51.902;9.542;2023-05-07T08:00:49;7.45;;;6.75;;
462;SDS011;218;51.902;9.542;2023-05-07T08:03:17;7.73;;;7.13;;
462;SDS011;218;51.902;9.542;2023-05-07T08:05:44;7.30;;;6.70;;
462;SDS011;218;51.902;9.542;2023-05-07T08:08:11;7.13;;;6.43;;
462;SDS011;218;51.902;9.542;2023-05-07T08:10:39;7.47;;;6.88;;
462;SDS011;218;51.902;9.542;2023-05-07T08:13:06;6.90;;;6.35;;
462;SDS011;218;51.902;9.542;2023-05-07T08:15:34;6.35;;;5.75;;
462;SDS011;218;51.902;9.542;2023-05-07T08:18:02;6.10;;;5.60;;
462;SDS011;218;51.902;9.542;2023-05-07T08:20:29;6.47;;;5.87;;
462;SDS011;218;51.902;9.542;2023-05-07T08:22:56;6.40;;;5.90;;
462;SDS011;218;51.902;9.542;2023-05-07T08:25:23;7.03;;;6.33;;
462;SDS011;218;51.902;9.542;2023-05-07T08:27:50;6.68;;;6.07;;
462;SDS011;218;51.902;9.542;2023-05-07T08:30:17;5.60;;;5.10;;
462;SDS011;218;51.902;9.542;2023-05-07T08:32:46;6.53;;;6.03;;
462;SDS011;218;51.902;9.542;2023-05-07T08:35:13;6.90;;;6.30;;
462;SDS011;218;51.902;9.542;2023-05-07T08:37:39;6.90;;;6.40;;
462;SDS011;218;51.902;9.542;2023-05-07T08:40:07;6.15;;;5.65;;
462;SDS011;218;51.902;9.542;2023-05-07T08:42:35;6.83;;;6.33;;
462;SDS011;218;51.902;9.542;2023-05-07T08:45:03;6.20;;;5.70;;
462;SDS011;218;51.902;9.542;2023-05-07T08:47:34;7.10;;;6.50;;
462;SDS011;218;51.902;9.542;2023-05-07T08:50:03;6.40;;;6.00;;
462;SDS011;218;51.902;9.542;2023-05-07T08:52:31;6.40;;;5.80;;
462;SDS011;218;51.902;9.542;2023-05-07T08:54:59;6.37;;;5.80;;
462;SDS011;218;51.902;9.542;2023-05-07T08:57:26;6.70;;;6.20;;
462;SDS011;218;51.902;9.542;2023-05-07T08:59:53;6.22;;;5.72;;
462;SDS011;218;51.902;9.542;2023-05-07T09:02:20;6.87;;;6.27;;
462;SDS011;218;51.902;9.542;2023-05-07T09:04:47;6.87;;;6.37;;
462;SDS011;218;51.902;9.542;2023-05-07T09:07:15;6.75;;;6.25;;
462;SDS011;218;51.902;9.542;2023-05-07T09:09:43;7.00;;;6.40;;
462;SDS011;218;51.902;9.542;2023-05-07T09:12:11;7.87;;;7.17;;
462;SDS011;218;51.902;9.542;2023-05-07T09:14:38;6.65;;;6.15;;
462;SDS011;218;51.902;9.542;2023-05-07T09:17:05;6.77;;;6.20;;
462;SDS011;218;51.902;9.542;2023-05-07T09:19:32;6.60;;;6.10;;
462;SDS011;218;51.902;9.542;2023-05-07T09:21:59;7.18;;;6.57;;
462;SDS011;218;51.902;9.542;2023-05-07T09:24:28;5.97;;;5.50;;
462;SDS011;218;51.902;9.542;2023-05-07T09:27:00;7.40;;;6.80;;
462;SDS011;218;51.902;9.542;2023-05-07T09:29:27;6.87;;;6.37;;
462;SDS011;218;51.902;9.542;2023-05-07T09:31:55;7.57;;;6.97;;
462;SDS011;218;51.902;9.542;2023-05-07T09:34:22;6.90;;;6.37;;
462;SDS011;218;51.902;9.542;2023-05-07T09:36:49;6.97;;;6.33;;
462;SDS011;218;51.902;9.542;2023-05-07T09:39:16;7.28;;;6.65;;
462;SDS011;218;51.902;9.542;2023-05-07T09:41:45;5.97;;;5.47;;
462;SDS011;218;51.902;9.542;2023-05-07T09:44:12;6.07;;;5.67;;
462;SDS011;218;51.902;9.542;2023-05-07T09:46:41;7.03;;;6.33;;
462;SDS011;218;51.902;9.542;2023-05-07T09:49:10;6.70;;;6.20;;
462;SDS011;218;51.902;9.542;2023-05-07T09:51:41;7.23;;;6.53;;
462;SDS011;218;51.902;9.542;2023-05-07T09:54:08;6.97;;;6.47;;
462;SDS011;218;51.902;9.542;2023-05-07T09:56:36;5.90;;;5.40;;
462;SDS011;218;51.902;9.542;2023-05-07T09:59:08;7.40;;;6.80;;
462;SDS011;218;51.902;9.542;2023-05-07T10:01:38;6.20;;;5.77;;
462;SDS011;218;51.902;9.542;2023-05-07T10:04:07;7.20;;;6.70;;
462;SDS011;218;51.902;9.542;2023-05-07T10:06:35;6.83;;;6.30;;
462;SDS011;218;51.902;9.542;2023-05-07T10:09:02;6.57;;;6.07;;
462;SDS011;218;51.902;9.542;2023-05-07T10:11:31;6.97;;;6.37;;
462;SDS011;218;51.902;9.542;2023-05-07T10:13:59;6.80;;;6.28;;
462;SDS011;218;51.902;9.542;2023-05-07T10:16:28;7.43;;;6.93;;
462;SDS011;218;51.902;9.542;2023-05-07T10:18:56;7.30;;;6.70;;
462;SDS011;218;51.902;9.542;2023-05-07T10:21:24;7.60;;;6.90;;
462;SDS011;218;51.902;9.542;2023-05-07T10:23:56;6.87;;;6.37;;
462;SDS011;218;51.902;9.542;2023-05-07T10:26:25;7.43;;;6.82;;
462;SDS011;218;51.902;9.542;2023-05-07T10:28:53;7.63;;;6.93;;
462;SDS011;218;51.902;9.542;2023-05-07T10:31:30;8.60;;;7.80;;
462;SDS011;218;51.902;9.542;2023-05-07T10:34:01;7.97;;;7.27;;
462;SDS011;218;51.902;9.542;2023-05-07T10:36:30;9.03;;;8.23;;
462;SDS011;218;51.902;9.542;2023-05-07T10:38:59;8.57;;;7.60;;
462;SDS011;218;51.902;9.542;2023-05-07T10:41:26;8.73;;;8.00;;
462;SDS011;218;51.902;9.542;2023-05-07T10:43:53;8.47;;;7.77;;
462;SDS011;218;51.902;9.542;2023-05-07T10:46:21;8.27;;;7.60;;
462;SDS011;218;51.902;9.542;2023-05-07T10:49:11;8.65;;;7.50;;
462;SDS011;218;51.902;9.542;2023-05-07T10:51:39;8.47;;;7.77;;
462;SDS011;218;51.902;9.542;2023-05-07T10:54:18;8.43;;;7.73;;
462;SDS011;218;51.902;9.542;2023-05-07T10:56:46;7.97;;;7.27;;
462;SDS011;218;51.902;9.542;2023-05-07T10:59:31;8.97;;;8.20;;
462;SDS011;218;51.902;9.542;2023-05-07T11:01:59;7.60;;;6.90;;
462;SDS011;218;51.902;9.542;2023-05-07T11:04:29;7.87;;;7.23;;
462;SDS011;218;51.902;9.542;2023-05-07T11:10:00;9.27;;;8.30;;
462;SDS011;218;51.902;9.542;2023-05-07T11:15:33;9.17;;;8.40;;
462;SDS011;218;51.902;9.542;2023-05-07T11:18:00;10.07;;;9.17;;
462;SDS011;218;51.902;9.542;2023-05-07T11:26:25;10.23;;;9.33;;
462;SDS011;218;51.902;9.542;2023-05-07T11:28:53;10.03;;;9.30;;
462;SDS011;218;51.902;9.542;2023-05-07T11:31:21;9.60;;;8.90;;
462;SDS011;218;51.902;9.542;2023-05-07T11:33:49;10.37;;;9.53;;
462;SDS011;218;51.902;9.542;2023-05-07T11:36:17;10.77;;;8.67;;
462;SDS011;218;51.902;9.542;2023-05-07T11:38:45;10.00;;;9.20;;
462;SDS011;218;51.902;9.542;2023-05-07T11:41:12;9.93;;;8.93;;
462;SDS011;218;51.902;9.542;2023-05-07T11:43:53;9.13;;;8.33;;
462;SDS011;218;51.902;9.542;2023-05-07T11:46:23;9.60;;;8.90;;
462;SDS011;218;51.902;9.542;2023-05-07T11:48:50;10.40;;;9.50;;
462;SDS011;218;51.902;9.542;2023-05-07T11:51:22;10.27;;;9.37;;
462;SDS011;218;51.902;9.542;2023-05-07T11:53:51;11.40;;;10.50;;
462;SDS011;218;51.902;9.542;2023-05-07T11:56:18;9.70;;;8.90;;
462;SDS011;218;51.902;9.542;2023-05-07T11:58:46;9.90;;;9.00;;
462;SDS011;218;51.902;9.542;2023-05-07T12:01:14;10.70;;;9.80;;
462;SDS011;218;51.902;9.542;2023-05-07T12:03:42;10.40;;;9.50;;
462;SDS011;218;51.902;9.542;2023-05-07T12:06:10;10.10;;;9.23;;
462;SDS011;218;51.902;9.542;2023-05-07T12:08:40;10.13;;;9.27;;
462;SDS011;218;51.902;9.542;2023-05-07T12:11:07;11.70;;;10.77;;
462;SDS011;218;51.902;9.542;2023-05-07T12:13:36;10.40;;;9.40;;
462;SDS011;218;51.902;9.542;2023-05-07T12:16:03;11.10;;;10.20;;
462;SDS011;218;51.902;9.542;2023-05-07T12:18:32;10.87;;;9.97;;
462;SDS011;218;51.902;9.542;2023-05-07T12:21:00;11.63;;;10.50;;
462;SDS011;218;51.902;9.542;2023-05-07T12:23:28;11.50;;;10.63;;
462;SDS011;218;51.902;9.542;2023-05-07T12:25:57;12.33;;;11.33;;
462;SDS011;218;51.902;9.542;2023-05-07T12:28:25;12.10;;;11.10;;
462;SDS011;218;51.902;9.542;2023-05-07T12:30:52;11.13;;;10.17;;
462;SDS011;218;51.902;9.542;2023-05-07T12:33:24;12.00;;;10.83;;
462;SDS011;218;51.902;9.542;2023-05-07T12:35:53;11.90;;;10.90;;
462;SDS011;218;51.902;9.542;2023-05-07T12:38:21;12.73;;;11.67;;
462;SDS011;218;51.902;9.542;2023-05-07T12:40:49;12.90;;;11.77;;
462;SDS011;218;51.902;9.542;2023-05-07T12:43:21;10.77;;;9.87;;
462;SDS011;218;51.902;9.542;2023-05-07T12:45:51;11.67;;;10.77;;
462;SDS011;218;51.902;9.542;2023-05-07T12:48:20;11.60;;;10.70;;
462;SDS011;218;51.902;9.542;2023-05-07T12:50:49;11.67;;;10.70;;
462;SDS011;218;51.902;9.542;2023-05-07T12:53:16;12.70;;;11.60;;
462;SDS011;218;51.902;9.542;2023-05-07T12:55:43;12.30;;;11.30;;
462;SDS011;218;51.902;9.542;2023-05-07T12:58:15;11.70;;;10.70;;
462;SDS011;218;51.902;9.542;2023-05-07T13:00:45;12.03;;;11.13;;
462;SDS011;218;51.902;9.542;2023-05-07T13:03:20;11.27;;;10.37;;
462;SDS011;218;51.902;9.542;2023-05-07T13:05:47;11.67;;;10.77;;
462;SDS011;218;51.902;9.542;2023-05-07T13:08:23;11.57;;;10.57;;
462;SDS011;218;51.902;9.542;2023-05-07T13:10:51;13.50;;;12.27;;
462;SDS011;218;51.902;9.542;2023-05-07T13:13:18;13.70;;;12.60;;
462;SDS011;218;51.902;9.542;2023-05-07T13:15:47;12.70;;;11.70;;
462;SDS011;218;51.902;9.542;2023-05-07T13:18:14;12.40;;;11.37;;
462;SDS011;218;51.902;9.542;2023-05-07T13:20:41;13.47;;;12.47;;
462;SDS011;218;51.902;9.542;2023-05-07T13:23:08;13.23;;;11.93;;
462;SDS011;218;51.902;9.542;2023-05-07T13:25:35;13.33;;;12.23;;
462;SDS011;218;51.902;9.542;2023-05-07T13:28:02;11.70;;;10.80;;
462;SDS011;218;51.902;9.542;2023-05-07T13:30:29;13.77;;;12.67;;
462;SDS011;218;51.902;9.542;2023-05-07T13:32:57;12.03;;;10.93;;
462;SDS011;218;51.902;9.542;2023-05-07T13:35:25;12.70;;;11.67;;
462;SDS011;218;51.902;9.542;2023-05-07T13:37:52;12.17;;;11.17;;
462;SDS011;218;51.902;9.542;2023-05-07T13:40:19;12.00;;;10.90;;
462;SDS011;218;51.902;9.542;2023-05-07T13:42:47;12.60;;;11.60;;
462;SDS011;218;51.902;9.542;2023-05-07T13:45:15;13.00;;;11.93;;
462;SDS011;218;51.902;9.542;2023-05-07T13:47:43;13.03;;;11.93;;
462;SDS011;218;51.902;9.542;2023-05-07T13:50:11;11.70;;;10.80;;
462;SDS011;218;51.902;9.542;2023-05-07T13:52:40;12.40;;;11.40;;
462;SDS011;218;51.902;9.542;2023-05-07T13:55:08;11.90;;;10.93;;
462;SDS011;218;51.902;9.542;2023-05-07T13:57:36;12.20;;;11.20;;
462;SDS011;218;51.902;9.542;2023-05-07T14:00:03;12.23;;;11.23;;
462;SDS011;218;51.902;9.542;2023-05-07T14:02:32;12.33;;;11.30;;
462;SDS011;218;51.902;9.542;2023-05-07T14:04:59;12.40;;;11.40;;
462;SDS011;218;51.902;9.542;2023-05-07T14:07:27;12.40;;;11.47;;
462;SDS011;218;51.902;9.542;2023-05-07T14:09:54;11.80;;;10.77;;
462;SDS011;218;51.902;9.542;2023-05-07T14:12:21;13.03;;;12.03;;
462;SDS011;218;51.902;9.542;2023-05-07T14:14:48;13.03;;;12.03;;
462;SDS011;218;51.902;9.542;2023-05-07T14:17:18;12.00;;;11.10;;
462;SDS011;218;51.902;9.542;2023-05-07T14:19:45;12.17;;;11.27;;
462;SDS011;218;51.902;9.542;2023-05-07T14:22:13;11.80;;;10.90;;
462;SDS011;218;51.902;9.542;2023-05-07T14:24:41;11.77;;;10.93;;
462;SDS011;218;51.902;9.542;2023-05-07T14:27:08;11.70;;;10.80;;
462;SDS011;218;51.902;9.542;2023-05-07T14:29:35;12.40;;;11.50;;
462;SDS011;218;51.902;9.542;2023-05-07T14:32:02;12.90;;;11.70;;
462;SDS011;218;51.902;9.542;2023-05-07T14:34:29;11.67;;;10.67;;
462;SDS011;218;51.902;9.542;2023-05-07T14:36:57;12.17;;;11.17;;
462;SDS011;218;51.902;9.542;2023-05-07T14:39:25;11.40;;;10.50;;
462;SDS011;218;51.902;9.542;2023-05-07T14:41:54;11.97;;;11.07;;
462;SDS011;218;51.902;9.542;2023-05-07T14:44:21;13.23;;;12.13;;
462;SDS011;218;51.902;9.542;2023-05-07T14:46:48;11.70;;;10.70;;
462;SDS011;218;51.902;9.542;2023-05-07T14:49:15;12.70;;;11.73;;
462;SDS011;218;51.902;9.542;2023-05-07T14:51:43;12.43;;;11.47;;
462;SDS011;218;51.902;9.542;2023-05-07T14:54:10;11.57;;;10.67;;
462;SDS011;218;51.902;9.542;2023-05-07T14:56:38;11.63;;;10.73;;
462;SDS011;218;51.902;9.542;2023-05-07T14:59:06;11.33;;;10.40;;
462;SDS011;218;51.902;9.542;2023-05-07T15:01:33;12.03;;;11.03;;
462;SDS011;218;51.902;9.542;2023-05-07T15:04:02;11.80;;;10.90;;
462;SDS011;218;51.902;9.542;2023-05-07T15:06:29;12.03;;;11.03;;
462;SDS011;218;51.902;9.542;2023-05-07T15:08:56;12.37;;;11.37;;
462;SDS011;218;51.902;9.542;2023-05-07T15:11:23;11.80;;;10.90;;
462;SDS011;218;51.902;9.542;2023-05-07T15:13:50;10.57;;;9.77;;
462;SDS011;218;51.902;9.542;2023-05-07T15:16:18;10.83;;;9.90;;
462;SDS011;218;51.902;9.542;2023-05-07T15:18:45;11.17;;;10.37;;
462;SDS011;218;51.902;9.542;2023-05-07T15:21:12;12.37;;;11.23;;
462;SDS011;218;51.902;9.542;2023-05-07T15:23:39;11.77;;;10.77;;
462;SDS011;218;51.902;9.542;2023-05-07T15:26:07;12.80;;;11.70;;
462;SDS011;218;51.902;9.542;2023-05-07T15:28:34;12.30;;;11.40;;
462;SDS011;218;51.902;9.542;2023-05-07T15:31:01;14.03;;;12.93;;
462;SDS011;218;51.902;9.542;2023-05-07T15:33:29;11.50;;;10.70;;
462;SDS011;218;51.902;9.542;2023-05-07T15:35:56;12.47;;;11.57;;
462;SDS011;218;51.902;9.542;2023-05-07T15:38:23;12.70;;;11.70;;